sensor_id;sensor_type;location;lat;lon;timestamp;P1;durP1;ratioP1;P2;durP2;ratioP2
11839;SDS011;5979;50.800;4.904;2023-03-01T00:02:19;9.27;;;7.93;;
11839;SDS011;5979;50.800;4.904;2023-03-01T00:04:45;8.73;;;7.83;;
11839;SDS011;5979;50.800;4.904;2023-03-01T00:07:11;8.70;;;7.93;;
11839;SDS011;5979;50.800;4.904;2023-03-01T00:09:37;10.03;;;8.67;;
11839;SDS011;5979;50.800;4.904;2023-03-01T00:12:03;10.57;;;9.07;;
11839;SDS011;5979;50.800;4.904;2023-03-01T00:14:30;9.30;;;8.40;;
11839;SDS011;5979;50.800;4.904;2023-03-01T00:16:55;9.10;;;8.17;;
11839;SDS011;5979;50.800;4.904;2023-03-01T00:19:21;9.80;;;8.80;;
11839;SDS011;5979;50.800;4.904;2023-03-01T00:21:47;9.80;;;8.77;;
11839;SDS011;5979;50.800;4.904;2023-03-01T00:24:13;8.83;;;7.90;;
11839;SDS011;5979;50.800;4.904;2023-03-01T00:26:39;10.23;;;8.87;;
11839;SDS011;5979;50.800;4.904;2023-03-01T00:29:05;10.03;;;8.63;;
11839;SDS011;5979;50.800;4.904;2023-03-01T00:31:31;8.07;;;7.37;;
11839;SDS011;5979;50.800;4.904;2023-03-01T00:33:59;10.00;;;8.33;;
11839;SDS011;5979;50.800;4.904;2023-03-01T00:36:27;10.47;;;8.50;;
11839;SDS011;5979;50.800;4.904;2023-03-01T00:39:03;9.40;;;8.43;;
11839;SDS011;5979;50.800;4.904;2023-03-01T00:41:30;9.17;;;8.13;;
11839;SDS011;5979;50.800;4.904;2023-03-01T00:43:56;9.40;;;8.50;;
11839;SDS011;5979;50.800;4.904;2023-03-01T00:46:23;10.57;;;8.70;;
11839;SDS011;5979;50.800;4.904;2023-03-01T00:48:50;11.53;;;8.23;;
11839;SDS011;5979;50.800;4.904;2023-03-01T00:51:17;10.33;;;9.23;;
11839;SDS011;5979;50.800;4.904;2023-03-01T00:53:49;11.00;;;9.57;;
11839;SDS011;5979;50.800;4.904;2023-03-01T00:56:16;10.93;;;9.70;;
11839;SDS011;5979;50.800;4.904;2023-03-01T00:58:42;9.93;;;8.67;;
11839;SDS011;5979;50.800;4.904;2023-03-01T01:01:08;9.87;;;8.53;;
11839;SDS011;5979;50.800;4.904;2023-03-01T01:03:42;11.80;;;8.60;;
11839;SDS011;5979;50.800;4.904;2023-03-01T01:06:13;9.03;;;8.10;;
11839;SDS011;5979;50.800;4.904;2023-03-01T01:08:39;10.70;;;8.90;;
11839;SDS011;5979;50.800;4.904;2023-03-01T01:11:05;9.17;;;8.27;;
11839;SDS011;5979;50.800;4.904;2023-03-01T01:13:33;10.00;;;8.60;;
11839;SDS011;5979;50.800;4.904;2023-03-01T01:16:02;8.27;;;7.47;;
11839;SDS011;5979;50.800;4.904;2023-03-01T01:18:28;9.53;;;8.53;;
11839;SDS011;5979;50.800;4.904;2023-03-01T01:20:53;9.67;;;8.73;;
11839;SDS011;5979;50.800;4.904;2023-03-01T01:23:19;8.80;;;7.90;;
11839;SDS011;5979;50.800;4.904;2023-03-01T01:25:44;10.70;;;8.00;;
11839;SDS011;5979;50.800;4.904;2023-03-01T01:28:10;9.27;;;8.30;;
11839;SDS011;5979;50.800;4.904;2023-03-01T01:30:36;10.20;;;9.23;;
11839;SDS011;5979;50.800;4.904;2023-03-01T01:33:01;9.30;;;8.30;;
11839;SDS011;5979;50.800;4.904;2023-03-01T01:35:27;10.77;;;8.13;;
11839;SDS011;5979;50.800;4.904;2023-03-01T01:37:53;10.07;;;7.57;;
11839;SDS011;5979;50.800;4.904;2023-03-01T01:40:18;10.60;;;8.60;;
11839;SDS011;5979;50.800;4.904;2023-03-01T01:42:44;9.47;;;8.47;;
11839;SDS011;5979;50.800;4.904;2023-03-01T01:48:06;8.27;;;7.37;;
11839;SDS011;5979;50.800;4.904;2023-03-01T01:50:39;9.53;;;7.60;;
11839;SDS011;5979;50.800;4.904;2023-03-01T01:53:06;10.03;;;7.67;;
11839;SDS011;5979;50.800;4.904;2023-03-01T01:55:43;8.80;;;7.90;;
11839;SDS011;5979;50.800;4.904;2023-03-01T01:58:11;9.20;;;8.13;;
11839;SDS011;5979;50.800;4.904;2023-03-01T02:00:41;11.10;;;8.53;;
11839;SDS011;5979;50.800;4.904;2023-03-01T02:03:11;9.83;;;8.20;;
11839;SDS011;5979;50.800;4.904;2023-03-01T02:08:24;9.97;;;8.97;;
11839;SDS011;5979;50.800;4.904;2023-03-01T02:10:53;10.37;;;8.07;;
11839;SDS011;5979;50.800;4.904;2023-03-01T02:13:21;10.10;;;9.10;;
11839;SDS011;5979;50.800;4.904;2023-03-01T02:15:46;10.17;;;8.03;;
11839;SDS011;5979;50.800;4.904;2023-03-01T02:18:13;11.47;;;8.63;;
11839;SDS011;5979;50.800;4.904;2023-03-01T02:23:35;9.63;;;8.63;;
11839;SDS011;5979;50.800;4.904;2023-03-01T02:26:03;8.80;;;7.90;;
11839;SDS011;5979;50.800;4.904;2023-03-01T02:28:36;9.27;;;7.63;;
11839;SDS011;5979;50.800;4.904;2023-03-01T02:31:04;10.33;;;7.93;;
11839;SDS011;5979;50.800;4.904;2023-03-01T02:33:51;12.47;;;8.93;;
11839;SDS011;5979;50.800;4.904;2023-03-01T02:36:25;10.83;;;9.17;;
11839;SDS011;5979;50.800;4.904;2023-03-01T02:38:56;10.30;;;8.80;;
11839;SDS011;5979;50.800;4.904;2023-03-01T02:41:24;10.33;;;8.97;;
11839;SDS011;5979;50.800;4.904;2023-03-01T02:43:53;9.47;;;8.50;;
11839;SDS011;5979;50.800;4.904;2023-03-01T02:46:23;12.20;;;8.83;;
11839;SDS011;5979;50.800;4.904;2023-03-01T02:48:52;10.00;;;8.60;;
11839;SDS011;5979;50.800;4.904;2023-03-01T02:57:08;11.40;;;8.80;;
11839;SDS011;5979;50.800;4.904;2023-03-01T02:59:35;10.47;;;8.83;;
11839;SDS011;5979;50.800;4.904;2023-03-01T03:02:04;9.10;;;7.90;;
11839;SDS011;5979;50.800;4.904;2023-03-01T03:04:31;9.00;;;8.10;;
11839;SDS011;5979;50.800;4.904;2023-03-01T03:06:57;10.73;;;9.63;;
11839;SDS011;5979;50.800;4.904;2023-03-01T03:09:23;10.27;;;9.13;;
11839;SDS011;5979;50.800;4.904;2023-03-01T03:11:48;11.43;;;10.23;;
11839;SDS011;5979;50.800;4.904;2023-03-01T03:14:15;11.57;;;9.60;;
11839;SDS011;5979;50.800;4.904;2023-03-01T03:16:42;11.60;;;9.60;;
11839;SDS011;5979;50.800;4.904;2023-03-01T03:19:10;13.73;;;9.80;;
11839;SDS011;5979;50.800;4.904;2023-03-01T03:21:36;9.77;;;8.77;;
11839;SDS011;5979;50.800;4.904;2023-03-01T03:24:02;10.37;;;9.27;;
11839;SDS011;5979;50.800;4.904;2023-03-01T03:26:29;10.53;;;9.43;;
11839;SDS011;5979;50.800;4.904;2023-03-01T03:28:55;10.40;;;9.30;;
11839;SDS011;5979;50.800;4.904;2023-03-01T03:31:21;11.30;;;9.63;;
11839;SDS011;5979;50.800;4.904;2023-03-01T03:33:47;12.83;;;9.17;;
11839;SDS011;5979;50.800;4.904;2023-03-01T03:36:20;10.87;;;9.73;;
11839;SDS011;5979;50.800;4.904;2023-03-01T03:38:47;12.07;;;9.97;;
11839;SDS011;5979;50.800;4.904;2023-03-01T03:41:14;13.97;;;9.63;;
11839;SDS011;5979;50.800;4.904;2023-03-01T03:43:40;11.20;;;9.43;;
11839;SDS011;5979;50.800;4.904;2023-03-01T03:46:08;14.83;;;10.33;;
11839;SDS011;5979;50.800;4.904;2023-03-01T03:48:36;12.57;;;9.77;;
11839;SDS011;5979;50.800;4.904;2023-03-01T03:51:04;10.30;;;8.80;;
11839;SDS011;5979;50.800;4.904;2023-03-01T03:53:31;13.67;;;9.87;;
11839;SDS011;5979;50.800;4.904;2023-03-01T03:55:57;12.07;;;9.27;;
11839;SDS011;5979;50.800;4.904;2023-03-01T03:58:24;11.60;;;9.00;;
11839;SDS011;5979;50.800;4.904;2023-03-01T04:00:59;11.50;;;10.00;;
11839;SDS011;5979;50.800;4.904;2023-03-01T04:03:29;10.83;;;9.70;;
11839;SDS011;5979;50.800;4.904;2023-03-01T04:06:00;9.93;;;8.93;;
11839;SDS011;5979;50.800;4.904;2023-03-01T04:08:26;11.77;;;8.80;;
11839;SDS011;5979;50.800;4.904;2023-03-01T04:10:57;13.73;;;11.07;;
11839;SDS011;5979;50.800;4.904;2023-03-01T04:13:25;13.13;;;9.87;;
11839;SDS011;5979;50.800;4.904;2023-03-01T04:15:52;12.07;;;9.17;;
11839;SDS011;5979;50.800;4.904;2023-03-01T04:18:19;12.50;;;10.23;;
11839;SDS011;5979;50.800;4.904;2023-03-01T04:20:46;11.33;;;9.90;;
11839;SDS011;5979;50.800;4.904;2023-03-01T04:23:13;12.10;;;9.97;;
11839;SDS011;5979;50.800;4.904;2023-03-01T04:28:23;14.83;;;10.53;;
11839;SDS011;5979;50.800;4.904;2023-03-01T04:31:11;13.50;;;9.93;;
11839;SDS011;5979;50.800;4.904;2023-03-01T04:33:39;13.00;;;9.47;;
11839;SDS011;5979;50.800;4.904;2023-03-01T04:36:06;12.03;;;9.90;;
11839;SDS011;5979;50.800;4.904;2023-03-01T04:38:34;11.50;;;9.93;;
11839;SDS011;5979;50.800;4.904;2023-03-01T04:41:02;12.13;;;10.87;;
11839;SDS011;5979;50.800;4.904;2023-03-01T04:43:29;11.83;;;10.30;;
11839;SDS011;5979;50.800;4.904;2023-03-01T04:45:54;13.77;;;10.30;;
11839;SDS011;5979;50.800;4.904;2023-03-01T04:48:30;12.47;;;10.17;;
11839;SDS011;5979;50.800;4.904;2023-03-01T04:50:56;12.37;;;10.27;;
11839;SDS011;5979;50.800;4.904;2023-03-01T04:53:24;9.83;;;8.80;;
11839;SDS011;5979;50.800;4.904;2023-03-01T04:55:50;12.97;;;10.20;;
11839;SDS011;5979;50.800;4.904;2023-03-01T04:58:15;13.80;;;9.97;;
11839;SDS011;5979;50.800;4.904;2023-03-01T05:00:41;11.67;;;9.73;;
11839;SDS011;5979;50.800;4.904;2023-03-01T05:03:07;17.07;;;11.00;;
11839;SDS011;5979;50.800;4.904;2023-03-01T05:05:37;14.87;;;11.17;;
11839;SDS011;5979;50.800;4.904;2023-03-01T05:08:04;12.63;;;10.30;;
11839;SDS011;5979;50.800;4.904;2023-03-01T05:10:33;14.50;;;11.27;;
11839;SDS011;5979;50.800;4.904;2023-03-01T05:13:01;13.80;;;10.73;;
11839;SDS011;5979;50.800;4.904;2023-03-01T05:15:28;12.33;;;10.53;;
11839;SDS011;5979;50.800;4.904;2023-03-01T05:17:56;13.60;;;10.90;;
11839;SDS011;5979;50.800;4.904;2023-03-01T05:20:24;11.77;;;10.60;;
11839;SDS011;5979;50.800;4.904;2023-03-01T05:22:55;12.73;;;10.60;;
11839;SDS011;5979;50.800;4.904;2023-03-01T05:25:24;14.43;;;11.07;;
11839;SDS011;5979;50.800;4.904;2023-03-01T05:27:51;15.03;;;10.40;;
11839;SDS011;5979;50.800;4.904;2023-03-01T05:30:17;15.87;;;11.23;;
11839;SDS011;5979;50.800;4.904;2023-03-01T05:32:47;12.90;;;10.10;;
11839;SDS011;5979;50.800;4.904;2023-03-01T05:35:15;11.10;;;10.00;;
11839;SDS011;5979;50.800;4.904;2023-03-01T05:37:43;13.43;;;9.77;;
11839;SDS011;5979;50.800;4.904;2023-03-01T05:40:11;13.13;;;10.63;;
11839;SDS011;5979;50.800;4.904;2023-03-01T05:42:48;14.20;;;10.20;;
11839;SDS011;5979;50.800;4.904;2023-03-01T05:45:19;12.10;;;9.67;;
11839;SDS011;5979;50.800;4.904;2023-03-01T05:47:46;13.53;;;9.93;;
11839;SDS011;5979;50.800;4.904;2023-03-01T05:50:16;15.07;;;10.90;;
11839;SDS011;5979;50.800;4.904;2023-03-01T05:52:47;14.90;;;10.50;;
11839;SDS011;5979;50.800;4.904;2023-03-01T05:55:19;11.67;;;10.43;;
11839;SDS011;5979;50.800;4.904;2023-03-01T05:57:46;12.97;;;10.53;;
11839;SDS011;5979;50.800;4.904;2023-03-01T06:00:12;14.93;;;11.00;;
11839;SDS011;5979;50.800;4.904;2023-03-01T06:02:40;15.13;;;10.87;;
11839;SDS011;5979;50.800;4.904;2023-03-01T06:05:06;14.47;;;10.33;;
11839;SDS011;5979;50.800;4.904;2023-03-01T06:07:34;12.83;;;9.97;;
11839;SDS011;5979;50.800;4.904;2023-03-01T06:10:00;15.30;;;11.47;;
11839;SDS011;5979;50.800;4.904;2023-03-01T06:12:30;17.73;;;11.30;;
11839;SDS011;5979;50.800;4.904;2023-03-01T06:14:56;15.07;;;10.93;;
11839;SDS011;5979;50.800;4.904;2023-03-01T06:17:22;14.23;;;11.70;;
11839;SDS011;5979;50.800;4.904;2023-03-01T06:19:47;14.87;;;11.47;;
11839;SDS011;5979;50.800;4.904;2023-03-01T06:22:13;16.83;;;10.97;;
11839;SDS011;5979;50.800;4.904;2023-03-01T06:24:39;14.13;;;10.50;;
11839;SDS011;5979;50.800;4.904;2023-03-01T06:27:04;13.37;;;10.60;;
11839;SDS011;5979;50.800;4.904;2023-03-01T06:29:30;14.07;;;10.93;;
11839;SDS011;5979;50.800;4.904;2023-03-01T06:31:56;14.40;;;10.93;;
11839;SDS011;5979;50.800;4.904;2023-03-01T06:34:21;14.00;;;10.77;;
11839;SDS011;5979;50.800;4.904;2023-03-01T06:36:47;13.23;;;10.50;;
11839;SDS011;5979;50.800;4.904;2023-03-01T06:39:13;12.30;;;10.53;;
11839;SDS011;5979;50.800;4.904;2023-03-01T06:41:38;13.80;;;11.27;;
11839;SDS011;5979;50.800;4.904;2023-03-01T06:44:04;15.27;;;11.30;;
11839;SDS011;5979;50.800;4.904;2023-03-01T06:46:30;12.67;;;9.97;;
11839;SDS011;5979;50.800;4.904;2023-03-01T06:48:55;11.53;;;10.13;;
11839;SDS011;5979;50.800;4.904;2023-03-01T06:51:21;10.43;;;9.33;;
11839;SDS011;5979;50.800;4.904;2023-03-01T06:53:47;13.27;;;10.60;;
11839;SDS011;5979;50.800;4.904;2023-03-01T06:56:12;16.57;;;11.90;;
11839;SDS011;5979;50.800;4.904;2023-03-01T06:58:38;14.67;;;10.90;;
11839;SDS011;5979;50.800;4.904;2023-03-01T07:01:07;12.13;;;10.63;;
11839;SDS011;5979;50.800;4.904;2023-03-01T07:03:33;17.03;;;11.23;;
11839;SDS011;5979;50.800;4.904;2023-03-01T07:05:59;12.87;;;10.70;;
11839;SDS011;5979;50.800;4.904;2023-03-01T07:08:25;15.00;;;10.73;;
11839;SDS011;5979;50.800;4.904;2023-03-01T07:10:57;12.23;;;10.43;;
11839;SDS011;5979;50.800;4.904;2023-03-01T07:13:23;14.60;;;10.90;;
11839;SDS011;5979;50.800;4.904;2023-03-01T07:15:49;11.23;;;9.67;;
11839;SDS011;5979;50.800;4.904;2023-03-01T07:18:15;13.47;;;10.53;;
11839;SDS011;5979;50.800;4.904;2023-03-01T07:20:40;13.47;;;11.23;;
11839;SDS011;5979;50.800;4.904;2023-03-01T07:23:06;12.57;;;10.87;;
11839;SDS011;5979;50.800;4.904;2023-03-01T07:25:32;12.20;;;10.50;;
11839;SDS011;5979;50.800;4.904;2023-03-01T07:27:58;12.97;;;11.07;;
11839;SDS011;5979;50.800;4.904;2023-03-01T07:30:24;15.07;;;10.83;;
11839;SDS011;5979;50.800;4.904;2023-03-01T07:32:54;14.70;;;10.57;;
11839;SDS011;5979;50.800;4.904;2023-03-01T07:35:20;13.10;;;10.80;;
11839;SDS011;5979;50.800;4.904;2023-03-01T07:37:46;16.97;;;11.27;;
11839;SDS011;5979;50.800;4.904;2023-03-01T07:40:12;11.03;;;9.90;;
11839;SDS011;5979;50.800;4.904;2023-03-01T07:42:37;11.43;;;10.23;;
11839;SDS011;5979;50.800;4.904;2023-03-01T07:45:04;11.77;;;10.20;;
11839;SDS011;5979;50.800;4.904;2023-03-01T07:47:30;13.40;;;10.33;;
11839;SDS011;5979;50.800;4.904;2023-03-01T07:49:56;11.60;;;10.40;;
11839;SDS011;5979;50.800;4.904;2023-03-01T07:52:22;13.90;;;10.87;;
11839;SDS011;5979;50.800;4.904;2023-03-01T07:54:47;11.43;;;10.07;;
11839;SDS011;5979;50.800;4.904;2023-03-01T07:57:13;15.30;;;10.50;;
11839;SDS011;5979;50.800;4.904;2023-03-01T07:59:39;11.43;;;10.30;;
11839;SDS011;5979;50.800;4.904;2023-03-01T08:02:05;13.97;;;11.07;;
11839;SDS011;5979;50.800;4.904;2023-03-01T08:04:31;13.67;;;10.50;;
11839;SDS011;5979;50.800;4.904;2023-03-01T08:06:58;12.97;;;10.30;;
11839;SDS011;5979;50.800;4.904;2023-03-01T08:09:24;13.47;;;10.90;;
11839;SDS011;5979;50.800;4.904;2023-03-01T08:11:50;13.67;;;10.83;;
11839;SDS011;5979;50.800;4.904;2023-03-01T08:14:15;12.37;;;10.70;;
11839;SDS011;5979;50.800;4.904;2023-03-01T08:16:41;14.27;;;11.30;;
11839;SDS011;5979;50.800;4.904;2023-03-01T08:19:08;16.70;;;11.30;;
11839;SDS011;5979;50.800;4.904;2023-03-01T08:21:35;15.17;;;11.17;;
11839;SDS011;5979;50.800;4.904;2023-03-01T08:24:01;13.60;;;11.30;;
11839;SDS011;5979;50.800;4.904;2023-03-01T08:26:28;14.80;;;11.33;;
11839;SDS011;5979;50.800;4.904;2023-03-01T08:28:53;13.97;;;11.90;;
11839;SDS011;5979;50.800;4.904;2023-03-01T08:31:24;16.77;;;11.83;;
11839;SDS011;5979;50.800;4.904;2023-03-01T08:33:52;15.57;;;12.17;;
11839;SDS011;5979;50.800;4.904;2023-03-01T08:36:20;15.87;;;11.87;;
11839;SDS011;5979;50.800;4.904;2023-03-01T08:38:51;13.30;;;11.23;;
11839;SDS011;5979;50.800;4.904;2023-03-01T08:41:17;13.90;;;11.43;;
11839;SDS011;5979;50.800;4.904;2023-03-01T08:43:43;14.70;;;12.50;;
11839;SDS011;5979;50.800;4.904;2023-03-01T08:46:09;15.07;;;11.23;;
11839;SDS011;5979;50.800;4.904;2023-03-01T08:48:35;16.60;;;12.13;;
11839;SDS011;5979;50.800;4.904;2023-03-01T08:51:11;14.53;;;10.80;;
11839;SDS011;5979;50.800;4.904;2023-03-01T08:53:41;16.40;;;12.10;;
11839;SDS011;5979;50.800;4.904;2023-03-01T08:56:07;14.60;;;12.10;;
11839;SDS011;5979;50.800;4.904;2023-03-01T08:58:34;13.00;;;11.60;;
11839;SDS011;5979;50.800;4.904;2023-03-01T09:01:00;15.23;;;11.73;;
11839;SDS011;5979;50.800;4.904;2023-03-01T09:03:26;14.23;;;11.00;;
11839;SDS011;5979;50.800;4.904;2023-03-01T09:05:52;15.33;;;11.50;;
11839;SDS011;5979;50.800;4.904;2023-03-01T09:08:18;16.57;;;11.70;;
11839;SDS011;5979;50.800;4.904;2023-03-01T09:10:44;14.40;;;11.40;;
11839;SDS011;5979;50.800;4.904;2023-03-01T09:13:11;17.07;;;12.57;;
11839;SDS011;5979;50.800;4.904;2023-03-01T09:15:37;13.97;;;11.67;;
11839;SDS011;5979;50.800;4.904;2023-03-01T09:18:03;12.60;;;11.13;;
11839;SDS011;5979;50.800;4.904;2023-03-01T09:20:29;15.33;;;11.70;;
11839;SDS011;5979;50.800;4.904;2023-03-01T09:22:56;13.20;;;11.57;;
11839;SDS011;5979;50.800;4.904;2023-03-01T09:25:22;17.10;;;12.17;;
11839;SDS011;5979;50.800;4.904;2023-03-01T09:27:52;15.60;;;11.67;;
11839;SDS011;5979;50.800;4.904;2023-03-01T09:30:18;14.47;;;11.63;;
11839;SDS011;5979;50.800;4.904;2023-03-01T09:32:44;20.23;;;12.50;;
11839;SDS011;5979;50.800;4.904;2023-03-01T09:35:10;14.10;;;12.23;;
11839;SDS011;5979;50.800;4.904;2023-03-01T09:37:37;16.07;;;12.37;;
11839;SDS011;5979;50.800;4.904;2023-03-01T09:40:06;20.33;;;12.40;;
11839;SDS011;5979;50.800;4.904;2023-03-01T09:42:45;15.63;;;12.37;;
11839;SDS011;5979;50.800;4.904;2023-03-01T09:45:27;17.43;;;12.40;;
11839;SDS011;5979;50.800;4.904;2023-03-01T09:47:53;13.60;;;11.97;;
11839;SDS011;5979;50.800;4.904;2023-03-01T09:50:20;15.70;;;12.30;;
11839;SDS011;5979;50.800;4.904;2023-03-01T09:55:45;15.30;;;11.63;;
11839;SDS011;5979;50.800;4.904;2023-03-01T10:01:30;14.87;;;11.53;;
11839;SDS011;5979;50.800;4.904;2023-03-01T10:04:47;14.50;;;11.70;;
11839;SDS011;5979;50.800;4.904;2023-03-01T10:07:29;16.77;;;11.73;;
11839;SDS011;5979;50.800;4.904;2023-03-01T10:10:55;14.23;;;11.23;;
11839;SDS011;5979;50.800;4.904;2023-03-01T10:15:48;13.50;;;11.27;;
11839;SDS011;5979;50.800;4.904;2023-03-01T10:18:21;16.00;;;11.93;;
11839;SDS011;5979;50.800;4.904;2023-03-01T10:23:20;16.53;;;12.20;;
11839;SDS011;5979;50.800;4.904;2023-03-01T10:25:51;17.07;;;12.83;;
11839;SDS011;5979;50.800;4.904;2023-03-01T10:31:13;13.70;;;11.77;;
11839;SDS011;5979;50.800;4.904;2023-03-01T10:33:43;17.87;;;12.13;;
11839;SDS011;5979;50.800;4.904;2023-03-01T10:36:09;17.83;;;13.07;;
11839;SDS011;5979;50.800;4.904;2023-03-01T10:38:49;17.77;;;12.20;;
11839;SDS011;5979;50.800;4.904;2023-03-01T10:41:17;19.73;;;11.80;;
11839;SDS011;5979;50.800;4.904;2023-03-01T10:49:14;15.53;;;11.93;;
11839;SDS011;5979;50.800;4.904;2023-03-01T10:51:43;16.73;;;11.70;;
11839;SDS011;5979;50.800;4.904;2023-03-01T10:54:22;16.80;;;12.97;;
11839;SDS011;5979;50.800;4.904;2023-03-01T10:56:57;18.03;;;11.80;;
11839;SDS011;5979;50.800;4.904;2023-03-01T11:02:17;15.57;;;12.20;;
11839;SDS011;5979;50.800;4.904;2023-03-01T11:07:53;15.57;;;12.43;;
11839;SDS011;5979;50.800;4.904;2023-03-01T11:10:34;15.40;;;11.50;;
11839;SDS011;5979;50.800;4.904;2023-03-01T11:13:14;15.83;;;12.00;;
11839;SDS011;5979;50.800;4.904;2023-03-01T11:15:42;17.53;;;11.93;;
11839;SDS011;5979;50.800;4.904;2023-03-01T11:18:23;13.47;;;11.70;;
11839;SDS011;5979;50.800;4.904;2023-03-01T11:20:49;15.53;;;11.60;;
11839;SDS011;5979;50.800;4.904;2023-03-01T11:23:18;16.37;;;11.93;;
11839;SDS011;5979;50.800;4.904;2023-03-01T11:26:02;14.53;;;11.77;;
11839;SDS011;5979;50.800;4.904;2023-03-01T11:28:32;13.83;;;10.97;;
11839;SDS011;5979;50.800;4.904;2023-03-01T11:36:07;16.33;;;12.63;;
11839;SDS011;5979;50.800;4.904;2023-03-01T11:38:49;15.17;;;11.10;;
11839;SDS011;5979;50.800;4.904;2023-03-01T11:43:56;13.80;;;11.60;;
11839;SDS011;5979;50.800;4.904;2023-03-01T11:57:38;12.75;;;11.32;;
11839;SDS011;5979;50.800;4.904;2023-03-01T12:00:11;15.43;;;11.47;;
11839;SDS011;5979;50.800;4.904;2023-03-01T12:06:13;13.50;;;11.27;;
11839;SDS011;5979;50.800;4.904;2023-03-01T12:08:28;14.63;;;11.20;;
11839;SDS011;5979;50.800;4.904;2023-03-01T12:22:04;17.08;;;12.43;;
11839;SDS011;5979;50.800;4.904;2023-03-01T12:24:43;16.75;;;11.05;;
11839;SDS011;5979;50.800;4.904;2023-03-01T12:27:26;14.38;;;12.05;;
11839;SDS011;5979;50.800;4.904;2023-03-01T12:30:46;15.20;;;11.80;;
11839;SDS011;5979;50.800;4.904;2023-03-01T12:33:39;14.85;;;12.45;;
11839;SDS011;5979;50.800;4.904;2023-03-01T12:36:47;17.10;;;12.60;;
11839;SDS011;5979;50.800;4.904;2023-03-01T12:50:49;24.95;;;16.50;;
11839;SDS011;5979;50.800;4.904;2023-03-01T12:53:30;23.75;;;17.55;;
11839;SDS011;5979;50.800;4.904;2023-03-01T12:56:02;24.57;;;18.20;;
11839;SDS011;5979;50.800;4.904;2023-03-01T13:09:51;21.23;;;15.97;;
11839;SDS011;5979;50.800;4.904;2023-03-01T13:17:47;19.73;;;14.50;;
11839;SDS011;5979;50.800;4.904;2023-03-01T13:38:58;12.50;;;10.60;;
11839;SDS011;5979;50.800;4.904;2023-03-01T13:46:56;13.38;;;10.15;;
11839;SDS011;5979;50.800;4.904;2023-03-01T13:49:36;13.65;;;10.25;;
11839;SDS011;5979;50.800;4.904;2023-03-01T13:58:04;13.27;;;9.93;;
11839;SDS011;5979;50.800;4.904;2023-03-01T14:00:43;13.67;;;9.90;;
11839;SDS011;5979;50.800;4.904;2023-03-01T14:05:35;10.77;;;9.68;;
11839;SDS011;5979;50.800;4.904;2023-03-01T14:08:01;14.52;;;10.57;;
11839;SDS011;5979;50.800;4.904;2023-03-01T14:10:52;11.20;;;9.73;;
11839;SDS011;5979;50.800;4.904;2023-03-01T14:19:15;11.63;;;9.88;;
11839;SDS011;5979;50.800;4.904;2023-03-01T14:21:45;11.25;;;10.05;;
11839;SDS011;5979;50.800;4.904;2023-03-01T14:24:17;14.70;;;9.95;;
11839;SDS011;5979;50.800;4.904;2023-03-01T14:26:47;14.70;;;10.25;;
11839;SDS011;5979;50.800;4.904;2023-03-01T14:29:27;12.13;;;10.00;;
11839;SDS011;5979;50.800;4.904;2023-03-01T14:32:20;15.10;;;10.15;;
11839;SDS011;5979;50.800;4.904;2023-03-01T14:34:49;13.50;;;10.27;;
11839;SDS011;5979;50.800;4.904;2023-03-01T14:37:24;12.77;;;10.70;;
11839;SDS011;5979;50.800;4.904;2023-03-01T14:39:52;13.75;;;10.45;;
11839;SDS011;5979;50.800;4.904;2023-03-01T14:42:19;15.55;;;10.73;;
11839;SDS011;5979;50.800;4.904;2023-03-01T14:44:47;12.57;;;9.30;;
11839;SDS011;5979;50.800;4.904;2023-03-01T14:47:25;13.98;;;10.70;;
11839;SDS011;5979;50.800;4.904;2023-03-01T14:49:58;13.93;;;11.02;;
11839;SDS011;5979;50.800;4.904;2023-03-01T14:52:34;14.43;;;10.88;;
11839;SDS011;5979;50.800;4.904;2023-03-01T14:55:03;13.30;;;10.35;;
11839;SDS011;5979;50.800;4.904;2023-03-01T14:57:43;12.38;;;9.95;;
11839;SDS011;5979;50.800;4.904;2023-03-01T15:00:10;14.32;;;11.55;;
11839;SDS011;5979;50.800;4.904;2023-03-01T15:02:47;14.55;;;10.75;;
11839;SDS011;5979;50.800;4.904;2023-03-01T15:05:14;15.57;;;11.35;;
11839;SDS011;5979;50.800;4.904;2023-03-01T15:07:43;11.75;;;9.95;;
11839;SDS011;5979;50.800;4.904;2023-03-01T15:10:24;13.35;;;10.40;;
11839;SDS011;5979;50.800;4.904;2023-03-01T15:12:51;13.85;;;11.07;;
11839;SDS011;5979;50.800;4.904;2023-03-01T15:18:04;14.50;;;10.23;;
11839;SDS011;5979;50.800;4.904;2023-03-01T15:20:51;12.48;;;9.75;;
11839;SDS011;5979;50.800;4.904;2023-03-01T15:23:19;12.50;;;9.40;;
11839;SDS011;5979;50.800;4.904;2023-03-01T15:25:50;10.98;;;9.88;;
11839;SDS011;5979;50.800;4.904;2023-03-01T15:28:30;14.88;;;10.30;;
11839;SDS011;5979;50.800;4.904;2023-03-01T15:31:16;11.52;;;9.40;;
11839;SDS011;5979;50.800;4.904;2023-03-01T15:33:47;11.30;;;9.45;;
11839;SDS011;5979;50.800;4.904;2023-03-01T15:36:31;12.50;;;10.48;;
11839;SDS011;5979;50.800;4.904;2023-03-01T15:47:34;10.80;;;8.73;;
11839;SDS011;5979;50.800;4.904;2023-03-01T15:50:04;10.80;;;8.70;;
11839;SDS011;5979;50.800;4.904;2023-03-01T15:52:39;9.50;;;8.50;;
11839;SDS011;5979;50.800;4.904;2023-03-01T15:55:14;11.18;;;9.50;;
11839;SDS011;5979;50.800;4.904;2023-03-01T15:57:42;14.60;;;9.07;;
11839;SDS011;5979;50.800;4.904;2023-03-01T16:00:11;12.10;;;9.95;;
11839;SDS011;5979;50.800;4.904;2023-03-01T16:02:39;10.20;;;8.80;;
11839;SDS011;5979;50.800;4.904;2023-03-01T16:05:09;9.85;;;8.85;;
11839;SDS011;5979;50.800;4.904;2023-03-01T16:07:43;10.88;;;8.77;;
11839;SDS011;5979;50.800;4.904;2023-03-01T16:10:09;11.50;;;8.82;;
11839;SDS011;5979;50.800;4.904;2023-03-01T16:12:35;12.38;;;9.23;;
11839;SDS011;5979;50.800;4.904;2023-03-01T16:15:00;9.37;;;8.37;;
11839;SDS011;5979;50.800;4.904;2023-03-01T16:17:26;11.43;;;8.93;;
11839;SDS011;5979;50.800;4.904;2023-03-01T16:19:52;9.07;;;8.18;;
11839;SDS011;5979;50.800;4.904;2023-03-01T16:22:17;8.35;;;7.50;;
11839;SDS011;5979;50.800;4.904;2023-03-01T16:24:45;10.73;;;8.60;;
11839;SDS011;5979;50.800;4.904;2023-03-01T16:27:11;11.52;;;8.00;;
11839;SDS011;5979;50.800;4.904;2023-03-01T16:29:37;9.43;;;8.30;;
11839;SDS011;5979;50.800;4.904;2023-03-01T16:32:02;9.85;;;8.27;;
11839;SDS011;5979;50.800;4.904;2023-03-01T16:34:28;10.43;;;8.43;;
11839;SDS011;5979;50.800;4.904;2023-03-01T16:36:54;12.25;;;8.23;;
11839;SDS011;5979;50.800;4.904;2023-03-01T16:39:20;9.40;;;8.32;;
11839;SDS011;5979;50.800;4.904;2023-03-01T16:41:45;10.35;;;8.52;;
11839;SDS011;5979;50.800;4.904;2023-03-01T16:44:11;9.15;;;8.25;;
11839;SDS011;5979;50.800;4.904;2023-03-01T16:46:36;10.68;;;8.60;;
11839;SDS011;5979;50.800;4.904;2023-03-01T16:49:02;9.50;;;8.15;;
11839;SDS011;5979;50.800;4.904;2023-03-01T16:51:28;10.73;;;8.57;;
11839;SDS011;5979;50.800;4.904;2023-03-01T16:53:54;11.55;;;8.13;;
11839;SDS011;5979;50.800;4.904;2023-03-01T16:56:20;9.93;;;7.97;;
11839;SDS011;5979;50.800;4.904;2023-03-01T16:58:46;9.97;;;8.43;;
11839;SDS011;5979;50.800;4.904;2023-03-01T17:01:13;9.80;;;8.43;;
11839;SDS011;5979;50.800;4.904;2023-03-01T17:03:41;8.87;;;7.90;;
11839;SDS011;5979;50.800;4.904;2023-03-01T17:06:12;12.50;;;8.77;;
11839;SDS011;5979;50.800;4.904;2023-03-01T17:08:39;10.93;;;8.18;;
11839;SDS011;5979;50.800;4.904;2023-03-01T17:11:10;9.53;;;7.73;;
11839;SDS011;5979;50.800;4.904;2023-03-01T17:13:43;9.50;;;7.83;;
11839;SDS011;5979;50.800;4.904;2023-03-01T17:16:10;9.10;;;8.20;;
11839;SDS011;5979;50.800;4.904;2023-03-01T17:18:38;8.63;;;7.77;;
11839;SDS011;5979;50.800;4.904;2023-03-01T17:21:04;10.13;;;7.67;;
11839;SDS011;5979;50.800;4.904;2023-03-01T17:23:32;9.90;;;8.20;;
11839;SDS011;5979;50.800;4.904;2023-03-01T17:25:58;10.37;;;7.87;;
11839;SDS011;5979;50.800;4.904;2023-03-01T17:28:25;8.93;;;8.03;;
11839;SDS011;5979;50.800;4.904;2023-03-01T17:30:54;9.70;;;7.73;;